Time;durP1;ratioP1;P1;durP2;ratioP2;P2;SDS_P1;SDS_P2;PMS_P1;PMS_P2;Temp;Humidity;BMP_temperature;BMP_pressure;BME280_temperature;BME280_humidity;BME280_pressure;Samples;Min_cycle;Max_cycle;Signal;HPM_P1;HPM_P2
2022/11/26 00:02:29;;;;;;;34.40;18.60;;;6.50;99.90;;;;;;5023496;28;20042;-69
2022/11/26 00:04:58;;;;;;;29.95;17.88;;;6.50;99.90;;;;;;5001739;28;20056;-69
2022/11/26 00:07:28;;;;;;;32.17;16.65;;;6.50;99.90;;;;;;5020161;28;20041;-69
2022/11/26 00:09:58;;;;;;;28.60;16.25;;;6.50;99.90;;;;;;5012679;28;20041;-69
2022/11/26 00:12:30;;;;;;;33.70;17.95;;;6.50;99.90;;;;;;5027225;28;20041;-69
2022/11/26 00:15:04;;;;;;;33.13;18.10;;;6.60;99.90;;;;;;5009637;28;20046;-69
2022/11/26 00:17:32;;;;;;;31.02;16.05;;;6.50;99.90;;;;;;5027805;28;20479;-70
2022/11/26 00:19:59;;;;;;;33.85;18.15;;;6.60;99.90;;;;;;5011394;28;20493;-69
2022/11/26 00:22:36;;;;;;;37.92;17.90;;;6.60;99.90;;;;;;5022335;28;20053;-69
2022/11/26 00:25:04;;;;;;;37.05;17.67;;;6.50;99.90;;;;;;5030158;28;20056;-69
2022/11/26 00:27:31;;;;;;;36.65;19.45;;;6.60;99.90;;;;;;5009064;28;21434;-69
2022/11/26 00:29:58;;;;;;;30.27;18.33;;;6.60;99.90;;;;;;4992663;28;20470;-69
2022/11/26 00:32:26;;;;;;;34.22;18.55;;;6.50;99.90;;;;;;5019961;28;20073;-69
2022/11/26 00:34:53;;;;;;;29.60;17.55;;;6.50;99.90;;;;;;5025138;28;20056;-69
2022/11/26 00:37:27;;;;;;;30.75;17.83;;;6.60;99.90;;;;;;5019922;28;20052;-69
2022/11/26 00:39:56;;;;;;;34.30;18.35;;;6.60;99.90;;;;;;5004025;28;20119;-69
2022/11/26 00:42:23;;;;;;;36.08;18.42;;;6.60;99.90;;;;;;5009222;28;20133;-69
2022/11/26 00:44:50;;;;;;;30.35;16.98;;;6.60;99.90;;;;;;5029877;28;20065;-69
2022/11/26 00:47:18;;;;;;;32.08;18.20;;;6.60;99.90;;;;;;5014279;28;20044;-68
2022/11/26 00:49:45;;;;;;;33.38;16.23;;;6.60;99.90;;;;;;5030615;28;20029;-69
2022/11/26 00:52:32;;;;;;;32.67;17.38;;;6.70;99.90;;;;;;5029605;28;20041;-69
2022/11/26 00:55:04;;;;;;;32.70;16.20;;;6.70;99.90;;;;;;5000925;28;20054;-68
2022/11/26 00:57:31;;;;;;;;;;;6.70;99.90;;;;;;5027892;28;20079;-68
2022/11/26 00:59:58;;;;;;;27.92;16.00;;;6.70;99.90;;;;;;5028156;28;19921;-69
2022/11/26 01:02:26;;;;;;;26.85;15.68;;;6.70;99.90;;;;;;5026557;28;20038;-69
2022/11/26 01:04:53;;;;;;;32.72;16.13;;;6.70;99.90;;;;;;5023177;28;20053;-68
2022/11/26 01:07:21;;;;;;;29.92;15.57;;;6.70;99.90;;;;;;5030000;28;20487;-68
2022/11/26 01:09:49;;;;;;;33.40;15.85;;;6.80;99.90;;;;;;5015513;28;20075;-68
2022/11/26 01:12:16;;;;;;;32.85;15.88;;;6.80;99.90;;;;;;5029378;28;20522;-68
2022/11/26 01:14:44;;;;;;;28.65;16.08;;;6.80;99.90;;;;;;5011814;28;20045;-69
2022/11/26 01:17:11;;;;;;;33.88;17.08;;;6.80;99.90;;;;;;5029568;28;20072;-68
2022/11/26 01:19:38;;;;;;;28.77;15.90;;;6.80;99.90;;;;;;5026780;28;20049;-69
2022/11/26 01:22:17;;;;;;;29.60;15.57;;;6.80;99.90;;;;;;5017961;28;20049;-69
2022/11/26 01:24:45;;;;;;;28.42;14.88;;;6.80;99.90;;;;;;5008682;28;20124;-68
2022/11/26 01:27:12;;;;;;;25.92;14.82;;;6.80;99.90;;;;;;5018153;28;20120;-68
2022/11/26 01:29:39;;;;;;;29.92;13.20;;;6.80;99.90;;;;;;5028459;28;20045;-69
2022/11/26 01:32:09;;;;;;;27.63;14.35;;;6.80;99.90;;;;;;5009492;28;20119;-68
2022/11/26 01:34:36;;;;;;;25.13;14.55;;;6.80;99.90;;;;;;5031191;28;20530;-68
2022/11/26 01:37:11;;;;;;;24.38;13.27;;;6.80;99.90;;;;;;5028186;28;20045;-69
2022/11/26 01:39:39;;;;;;;31.15;13.27;;;6.80;99.90;;;;;;5029134;28;20057;-69
2022/11/26 01:42:33;;;;;;;22.20;13.38;;;6.80;99.90;;;;;;5028514;28;20053;-69
2022/11/26 01:45:01;;;;;;;27.75;13.35;;;6.70;99.90;;;;;;5012917;28;20149;-69
2022/11/26 01:47:29;;;;;;;24.38;13.10;;;6.70;99.90;;;;;;5006949;28;20042;-70
2022/11/26 01:50:30;;;;;;;26.63;13.85;;;6.70;99.90;;;;;;5026496;28;20033;-69
2022/11/26 01:53:28;;;;;;;24.67;13.43;;;6.70;99.90;;;;;;5029546;28;20056;-69
2022/11/26 01:56:02;;;;;;;26.75;14.45;;;6.70;99.90;;;;;;5028576;28;20046;-69
2022/11/26 01:58:39;;;;;;;26.73;13.27;;;6.70;99.90;;;;;;5020590;28;20063;-69
2022/11/26 02:01:07;;;;;;;25.05;12.75;;;6.70;99.90;;;;;;5026221;28;20132;-69
2022/11/26 02:03:47;;;;;;;25.20;13.10;;;6.70;99.90;;;;;;5018735;28;20057;-68
2022/11/26 02:06:19;;;;;;;28.88;13.95;;;6.60;99.90;;;;;;4998211;28;20140;-68
2022/11/26 02:08:47;;;;;;;29.88;14.05;;;6.70;99.90;;;;;;5020509;28;20124;-68
2022/11/26 02:11:20;;;;;;;25.75;12.48;;;6.60;99.90;;;;;;4992076;28;20141;-68
2022/11/26 02:13:50;;;;;;;24.58;12.70;;;6.70;99.90;;;;;;5017268;28;20511;-68
2022/11/26 02:16:20;;;;;;;23.83;13.25;;;6.70;99.90;;;;;;5019785;28;20056;-68
2022/11/26 02:19:19;;;;;;;29.15;12.60;;;6.70;99.90;;;;;;5017595;28;20091;-69
2022/11/26 02:21:58;;;;;;;41.22;13.52;;;6.80;99.90;;;;;;5028897;28;20042;-69
2022/11/26 02:24:25;;;;;;;22.45;11.48;;;6.80;99.90;;;;;;5034755;28;20052;-68
2022/11/26 02:27:14;;;;;;;25.40;11.00;;;6.80;99.90;;;;;;5008385;28;20493;-69
2022/11/26 02:29:56;;;;;;;22.67;11.43;;;6.80;99.90;;;;;;5023226;28;20439;-69
2022/11/26 02:32:49;;;;;;;30.45;12.18;;;6.90;99.90;;;;;;4998435;28;20065;-69
2022/11/26 02:35:44;;;;;;;27.77;12.15;;;6.90;99.90;;;;;;5028340;28;20041;-69
2022/11/26 02:38:19;;;;;;;24.38;10.88;;;6.90;99.90;;;;;;5010058;28;20084;-68
2022/11/26 02:40:46;;;;;;;23.88;10.32;;;7.00;99.90;;;;;;5012063;28;20064;-70
2022/11/26 02:43:15;;;;;;;21.67;10.07;;;7.00;99.90;;;;;;5019938;28;20042;-72
2022/11/26 02:45:47;;;;;;;22.10;9.20;;;7.00;99.90;;;;;;5024298;28;20041;-68
2022/11/26 02:48:20;;;;;;;19.17;8.88;;;7.00;99.90;;;;;;5033473;28;20092;-69
2022/11/26 02:50:52;;;;;;;22.55;9.27;;;7.00;99.90;;;;;;5012439;28;20057;-69
2022/11/26 02:53:22;;;;;;;23.02;9.15;;;7.00;99.90;;;;;;5015876;28;20037;-70
2022/11/26 02:56:11;;;;;;;18.00;8.70;;;7.00;99.90;;;;;;5027775;28;20033;-70
2022/11/26 02:58:39;;;;;;;24.27;9.57;;;7.00;99.90;;;;;;5032446;28;20053;-69
2022/11/26 03:01:15;;;;;;;23.08;9.85;;;7.00;99.90;;;;;;5030256;28;20073;-71
2022/11/26 03:03:47;;;;;;;23.48;9.95;;;6.90;99.90;;;;;;5022245;28;20044;-70
2022/11/26 03:06:17;;;;;;;25.58;10.73;;;6.90;99.90;;;;;;5029808;28;20100;-71
2022/11/26 03:08:45;;;;;;;20.30;9.60;;;6.90;99.90;;;;;;5029137;28;20041;-71
2022/11/26 03:11:12;;;;;;;19.65;9.38;;;6.80;99.90;;;;;;5029665;28;20037;-72
2022/11/26 03:13:39;;;;;;;23.95;10.23;;;6.80;99.90;;;;;;5028224;28;20044;-71
2022/11/26 03:16:07;;;;;;;28.77;9.60;;;6.80;99.90;;;;;;5018545;28;20500;-71
2022/11/26 03:18:36;;;;;;;19.55;10.38;;;6.80;99.90;;;;;;5030230;28;20099;-71
2022/11/26 03:21:04;;;;;;;23.98;10.95;;;6.80;99.90;;;;;;5031729;28;20046;-72
2022/11/26 03:23:31;;;;;;;19.95;10.38;;;6.80;99.90;;;;;;5033278;28;20103;-71
2022/11/26 03:25:58;;;;;;;24.35;10.98;;;6.80;99.90;;;;;;5032694;28;20046;-71
2022/11/26 03:28:25;;;;;;;25.75;10.25;;;6.70;99.90;;;;;;5014290;28;20068;-71
2022/11/26 03:30:53;;;;;;;24.75;11.52;;;6.70;99.90;;;;;;5032088;28;20045;-70
2022/11/26 03:33:20;;;;;;;34.00;11.55;;;6.60;99.90;;;;;;5032401;28;20041;-72
2022/11/26 03:35:48;;;;;;;24.00;10.23;;;6.50;99.90;;;;;;5023483;28;20041;-71
2022/11/26 03:38:16;;;;;;;28.35;11.27;;;6.50;99.90;;;;;;5022878;28;20077;-71
2022/11/26 03:40:43;;;;;;;26.67;11.60;;;6.50;99.90;;;;;;5031214;28;20400;-70
2022/11/26 03:43:11;;;;;;;26.70;11.48;;;6.50;99.90;;;;;;5021933;28;20054;-71
2022/11/26 03:45:38;;;;;;;25.33;11.40;;;6.50;99.90;;;;;;5025284;28;20504;-69
2022/11/26 03:48:05;;;;;;;33.40;11.55;;;6.40;99.90;;;;;;5011891;28;20088;-68
2022/11/26 03:50:33;;;;;;;29.33;11.45;;;6.40;99.90;;;;;;5027458;28;20041;-68
2022/11/26 03:53:00;;;;;;;30.55;11.48;;;6.40;99.90;;;;;;5028413;28;20040;-69
2022/11/26 03:55:27;;;;;;;24.52;11.25;;;6.30;99.90;;;;;;5024685;28;20367;-70
2022/11/26 03:57:54;;;;;;;27.73;11.48;;;6.30;99.90;;;;;;5022043;28;20056;-70
2022/11/26 04:00:22;;;;;;;22.50;10.63;;;6.30;99.90;;;;;;5030805;28;20041;-70
2022/11/26 04:02:50;;;;;;;26.25;11.18;;;6.30;99.90;;;;;;5018288;28;20064;-70
2022/11/26 04:05:18;;;;;;;24.67;11.38;;;6.30;99.90;;;;;;5031851;28;20487;-71
2022/11/26 04:07:45;;;;;;;24.50;11.18;;;6.30;99.90;;;;;;5031235;28;20041;-70
2022/11/26 04:10:12;;;;;;;28.88;11.45;;;6.40;99.90;;;;;;5031872;28;20448;-71
2022/11/26 04:12:39;;;;;;;18.40;11.25;;;6.40;99.90;;;;;;5029859;28;20353;-70
2022/11/26 04:15:08;;;;;;;24.88;11.13;;;6.40;99.90;;;;;;5008835;28;20034;-70
2022/11/26 04:17:35;;;;;;;23.40;11.55;;;6.50;99.90;;;;;;5006962;28;20057;-71
2022/11/26 04:20:03;;;;;;;28.38;11.20;;;6.40;99.90;;;;;;5028911;28;20152;-70
2022/11/26 04:22:30;;;;;;;25.38;12.05;;;6.40;99.90;;;;;;5022727;28;20061;-71
2022/11/26 04:24:57;;;;;;;23.10;11.25;;;6.50;99.90;;;;;;5029731;28;20064;-71
2022/11/26 04:27:25;;;;;;;26.77;10.82;;;6.50;99.90;;;;;;5028814;28;20132;-70
2022/11/26 04:29:52;;;;;;;23.13;11.15;;;6.50;99.90;;;;;;5031545;28;20576;-71
2022/11/26 04:32:19;;;;;;;22.00;10.10;;;6.50;99.90;;;;;;5027697;28;20087;-70
2022/11/26 04:34:46;;;;;;;28.08;10.35;;;6.60;99.90;;;;;;5032421;28;20064;-71
2022/11/26 04:37:14;;;;;;;27.48;11.27;;;6.60;99.90;;;;;;5026751;28;20047;-71
2022/11/26 04:39:41;;;;;;;24.88;10.95;;;6.50;99.90;;;;;;5020371;28;20492;-70
2022/11/26 04:42:08;;;;;;;21.95;9.77;;;6.50;99.90;;;;;;5026790;28;20041;-70
2022/11/26 04:44:36;;;;;;;22.02;10.45;;;6.60;99.90;;;;;;5023318;28;20038;-71
2022/11/26 04:47:03;;;;;;;23.60;10.82;;;6.50;99.90;;;;;;5023897;28;20068;-71
2022/11/26 04:49:30;;;;;;;33.95;11.43;;;6.50;99.90;;;;;;5023573;28;20068;-70
2022/11/26 04:51:58;;;;;;;23.20;11.10;;;6.50;99.90;;;;;;5022577;28;20049;-71
2022/11/26 04:54:25;;;;;;;24.35;11.02;;;6.50;99.90;;;;;;5029690;28;20071;-71
2022/11/26 04:56:52;;;;;;;25.33;10.40;;;6.50;99.90;;;;;;5020544;28;20041;-70
2022/11/26 04:59:20;;;;;;;24.80;10.73;;;6.50;99.90;;;;;;5028707;28;20057;-71
2022/11/26 05:01:47;;;;;;;25.30;11.27;;;6.50;99.90;;;;;;5019799;28;20575;-71
2022/11/26 05:04:14;;;;;;;28.27;11.50;;;6.50;99.90;;;;;;5015767;28;20546;-71
2022/11/26 05:06:42;;;;;;;20.80;11.38;;;6.60;99.90;;;;;;5024016;28;20445;-71
2022/11/26 05:09:09;;;;;;;24.33;10.85;;;6.60;99.90;;;;;;5023573;28;20492;-71
2022/11/26 05:11:36;;;;;;;25.75;10.63;;;6.60;99.90;;;;;;5029168;28;20044;-71
2022/11/26 05:14:03;;;;;;;25.80;10.60;;;6.60;99.90;;;;;;5029656;28;20045;-70
2022/11/26 05:16:31;;;;;;;26.65;10.07;;;6.60;99.90;;;;;;5001252;28;20037;-69
2022/11/26 05:18:58;;;;;;;23.50;9.98;;;6.70;99.90;;;;;;5028077;28;20407;-71
2022/11/26 05:21:25;;;;;;;23.92;10.52;;;6.60;99.90;;;;;;5027634;28;20121;-69
2022/11/26 05:23:53;;;;;;;25.13;10.13;;;6.60;99.90;;;;;;5019520;28;20136;-70
2022/11/26 05:26:20;;;;;;;26.17;10.48;;;6.60;99.90;;;;;;5027539;28;20057;-71
2022/11/26 05:28:47;;;;;;;25.65;10.00;;;6.60;99.90;;;;;;5019232;28;20121;-69
2022/11/26 05:31:17;;;;;;;29.95;11.90;;;6.60;99.90;;;;;;5029918;28;20592;-70
2022/11/26 05:33:44;;;;;;;26.33;10.57;;;6.60;99.90;;;;;;5024391;28;20030;-69
2022/11/26 05:36:11;;;;;;;27.13;10.85;;;6.60;99.90;;;;;;5029354;28;20046;-71
2022/11/26 05:38:39;;;;;;;21.90;11.05;;;6.60;99.90;;;;;;5015114;28;20048;-69
2022/11/26 05:41:06;;;;;;;29.33;12.00;;;6.60;99.90;;;;;;5028603;28;20052;-70
2022/11/26 05:43:33;;;;;;;26.45;10.68;;;6.60;99.90;;;;;;5009452;28;20416;-70
2022/11/26 05:46:07;;;;;;;23.52;10.07;;;6.60;99.90;;;;;;4999279;28;20038;-69
2022/11/26 05:48:35;;;;;;;28.30;10.57;;;6.60;99.90;;;;;;5023143;28;20046;-71
2022/11/26 05:51:02;;;;;;;24.80;11.77;;;6.50;99.90;;;;;;5022317;28;20064;-70
2022/11/26 05:53:29;;;;;;;24.52;9.90;;;6.50;99.90;;;;;;5020445;28;20405;-70
2022/11/26 05:55:57;;;;;;;31.70;11.60;;;6.50;99.90;;;;;;5011215;28;20175;-70
2022/11/26 05:58:24;;;;;;;24.50;11.07;;;6.50;99.90;;;;;;5030057;28;20452;-70
2022/11/26 06:00:52;;;;;;;23.33;10.70;;;6.50;99.90;;;;;;5024667;28;20037;-70
2022/11/26 06:03:20;;;;;;;24.13;11.10;;;6.50;99.90;;;;;;5005153;28;20050;-69
2022/11/26 06:05:47;;;;;;;24.65;11.27;;;6.40;99.90;;;;;;5022541;28;20456;-70
2022/11/26 06:08:14;;;;;;;26.88;11.07;;;6.40;99.90;;;;;;5021027;28;20041;-70
2022/11/26 06:10:43;;;;;;;28.25;11.68;;;6.40;99.90;;;;;;5022668;28;20526;-69
2022/11/26 06:13:10;;;;;;;29.63;12.05;;;6.40;99.90;;;;;;5021584;28;20074;-71
2022/11/26 06:15:38;;;;;;;30.98;12.00;;;6.40;99.90;;;;;;5021860;28;20049;-70
2022/11/26 06:18:05;;;;;;;32.10;12.77;;;6.40;99.90;;;;;;5027359;28;20045;-71
2022/11/26 06:20:32;;;;;;;23.65;11.25;;;6.50;99.90;;;;;;5020075;28;20136;-70
2022/11/26 06:22:59;;;;;;;25.77;11.65;;;6.50;99.90;;;;;;5027812;28;20042;-70
2022/11/26 06:25:27;;;;;;;30.08;12.05;;;6.50;99.90;;;;;;5027046;28;20047;-70
2022/11/26 06:27:55;;;;;;;25.33;11.38;;;6.50;99.90;;;;;;5029006;28;20041;-70
2022/11/26 06:30:22;;;;;;;26.10;10.95;;;6.50;99.90;;;;;;5006271;28;20080;-70
2022/11/26 06:32:50;;;;;;;31.60;12.82;;;6.60;99.90;;;;;;5008170;28;20042;-71
2022/11/26 06:35:17;;;;;;;22.30;11.13;;;6.60;99.90;;;;;;5005374;28;20050;-70
2022/11/26 06:37:44;;;;;;;24.38;11.38;;;6.60;99.90;;;;;;5018403;28;20113;-70
2022/11/26 06:40:17;;;;;;;22.35;11.27;;;6.60;99.90;;;;;;5022650;28;20045;-70
2022/11/26 06:42:50;;;;;;;19.45;10.70;;;6.60;99.90;;;;;;5025415;28;20055;-70
2022/11/26 06:45:19;;;;;;;26.40;11.45;;;6.60;99.90;;;;;;5019086;28;20056;-71
2022/11/26 06:47:47;;;;;;;22.95;10.60;;;6.60;99.90;;;;;;5018132;28;20042;-70
2022/11/26 06:50:19;;;;;;;30.98;12.10;;;6.70;99.90;;;;;;5021322;28;20042;-71
2022/11/26 06:52:51;;;;;;;;;;;6.60;99.90;;;;;;5025057;28;20465;-70
2022/11/26 06:55:18;;;;;;;21.57;10.43;;;6.60;99.90;;;;;;5021781;28;19921;-70
2022/11/26 06:57:50;;;;;;;24.08;11.45;;;6.70;99.90;;;;;;5027158;28;20106;-70
2022/11/26 07:00:17;;;;;;;23.67;10.95;;;6.70;99.90;;;;;;5027974;28;20049;-69
2022/11/26 07:02:44;;;;;;;30.75;10.95;;;6.70;99.90;;;;;;5028866;28;20049;-69
2022/11/26 07:05:12;;;;;;;26.90;10.68;;;6.70;99.90;;;;;;5024669;28;20504;-70
2022/11/26 07:07:39;;;;;;;24.70;10.07;;;6.70;99.90;;;;;;5015156;28;20050;-70
2022/11/26 07:10:10;;;;;;;25.42;11.05;;;6.70;99.90;;;;;;5027002;28;20065;-71
2022/11/26 07:12:38;;;;;;;25.58;10.68;;;6.80;99.90;;;;;;5028633;28;20129;-70
2022/11/26 07:15:05;;;;;;;22.95;10.15;;;6.80;99.90;;;;;;5024956;28;20042;-68
2022/11/26 07:17:35;;;;;;;25.33;10.48;;;6.80;99.90;;;;;;5021977;28;20096;-70
2022/11/26 07:20:03;;;;;;;22.38;11.02;;;6.80;99.90;;;;;;5024157;28;20072;-70
2022/11/26 07:22:32;;;;;;;20.98;10.68;;;6.80;99.90;;;;;;5020701;28;20064;-69
2022/11/26 07:25:00;;;;;;;21.80;11.23;;;6.80;99.90;;;;;;5028137;28;20120;-69
2022/11/26 07:27:27;;;;;;;22.80;10.32;;;6.80;99.90;;;;;;5028739;28;20055;-71
2022/11/26 07:29:54;;;;;;;22.08;10.15;;;6.70;99.90;;;;;;5026852;28;20412;-70
2022/11/26 07:32:21;;;;;;;23.05;11.18;;;6.70;99.90;;;;;;5027405;28;20411;-70
2022/11/26 07:34:49;;;;;;;20.33;11.40;;;6.70;99.90;;;;;;5032576;28;20404;-71
2022/11/26 07:37:16;;;;;;;23.88;10.30;;;6.70;99.90;;;;;;5020128;28;20045;-70
2022/11/26 07:39:43;;;;;;;22.52;10.70;;;6.70;99.90;;;;;;5021720;28;20056;-71
2022/11/26 07:42:11;;;;;;;21.38;10.52;;;6.70;99.90;;;;;;5029524;28;20606;-71
2022/11/26 07:44:38;;;;;;;22.33;11.38;;;6.70;99.90;;;;;;4998296;28;20057;-71
2022/11/26 07:47:06;;;;;;;21.60;11.18;;;6.80;99.90;;;;;;5012304;28;20584;-69
2022/11/26 07:49:33;;;;;;;30.98;10.40;;;6.80;99.90;;;;;;5023321;28;20038;-70
2022/11/26 07:52:00;;;;;;;26.40;11.27;;;6.70;99.90;;;;;;5030274;28;20077;-70
2022/11/26 07:54:28;;;;;;;23.77;9.55;;;6.80;99.90;;;;;;5028613;28;20415;-71
2022/11/26 07:56:55;;;;;;;28.33;10.48;;;6.80;99.90;;;;;;5021317;28;20053;-70
2022/11/26 07:59:22;;;;;;;20.27;9.23;;;6.90;99.90;;;;;;5016856;28;20050;-71
2022/11/26 08:01:50;;;;;;;22.10;9.40;;;6.90;99.90;;;;;;5023804;28;20045;-71
2022/11/26 08:04:17;;;;;;;19.90;9.82;;;7.10;99.90;;;;;;5028017;28;20049;-71
2022/11/26 08:06:44;;;;;;;25.42;9.77;;;7.20;99.90;;;;;;5022415;28;20056;-71
2022/11/26 08:09:12;;;;;;;21.80;10.15;;;7.20;99.90;;;;;;5026889;28;20496;-70
2022/11/26 08:11:39;;;;;;;28.63;11.10;;;7.40;99.90;;;;;;5025275;28;20159;-70
2022/11/26 08:14:09;;;;;;;23.95;9.93;;;7.40;99.90;;;;;;5030347;28;20356;-74
2022/11/26 08:16:37;;;;;;;20.58;9.73;;;7.50;99.90;;;;;;5015533;28;20452;-71
2022/11/26 08:19:07;;;;;;;28.98;14.40;;;7.60;99.90;;;;;;5030761;28;20132;-71
2022/11/26 08:21:34;;;;;;;26.42;10.00;;;7.50;99.90;;;;;;5012456;28;20040;-71
2022/11/26 08:24:02;;;;;;;24.38;10.82;;;7.50;99.90;;;;;;5019092;28;20049;-70
2022/11/26 08:26:29;;;;;;;23.15;10.13;;;7.40;99.90;;;;;;5030694;28;20095;-71
2022/11/26 08:29:05;;;;;;;21.33;10.18;;;7.40;99.90;;;;;;5029868;28;20556;-71
2022/11/26 08:31:33;;;;;;;20.23;9.38;;;7.40;99.90;;;;;;5024460;28;20046;-71
2022/11/26 08:34:02;;;;;;;20.17;9.30;;;7.40;99.90;;;;;;5035007;28;20034;-70
2022/11/26 08:36:30;;;;;;;26.95;10.07;;;7.50;99.90;;;;;;5018539;28;20489;-71
2022/11/26 08:38:58;;;;;;;21.58;9.57;;;7.50;99.90;;;;;;5022017;28;20468;-69
2022/11/26 08:41:26;;;;;;;18.67;8.68;;;7.60;99.90;;;;;;5019924;28;20067;-70
2022/11/26 08:43:53;;;;;;;17.23;8.68;;;7.60;99.90;;;;;;5028404;28;20133;-70
2022/11/26 08:46:38;;;;;;;26.25;9.63;;;7.60;99.90;;;;;;5017536;28;20099;-70
2022/11/26 08:49:07;;;;;;;23.30;9.85;;;7.60;99.90;;;;;;5026799;28;20041;-71
2022/11/26 08:51:34;;;;;;;22.50;10.00;;;7.50;99.90;;;;;;5028510;28;20103;-70
2022/11/26 08:54:02;;;;;;;21.48;10.25;;;7.50;99.90;;;;;;5029638;28;20041;-70
2022/11/26 08:56:29;;;;;;;23.27;10.52;;;7.60;99.90;;;;;;5019930;28;20045;-70
2022/11/26 08:58:57;;;;;;;24.65;10.30;;;7.50;99.90;;;;;;5028398;28;20053;-70
2022/11/26 09:01:27;;;;;;;21.08;10.18;;;7.50;99.90;;;;;;5019145;28;20422;-70
2022/11/26 09:03:57;;;;;;;22.58;10.13;;;7.50;99.90;;;;;;5006153;28;20053;-71
2022/11/26 09:06:28;;;;;;;42.67;20.20;;;7.50;99.90;;;;;;5005539;28;20065;-70
2022/11/26 09:09:16;;;;;;;22.65;10.63;;;7.60;99.90;;;;;;5004826;28;20037;-71
2022/11/26 09:11:48;;;;;;;25.52;10.80;;;7.50;99.90;;;;;;5011795;28;20038;-70
2022/11/26 09:14:19;;;;;;;19.80;10.48;;;7.60;99.90;;;;;;5019183;28;20434;-70
2022/11/26 09:16:46;;;;;;;22.50;11.00;;;7.60;99.90;;;;;;5015839;28;20046;-71
2022/11/26 09:19:15;;;;;;;20.17;10.43;;;7.70;99.90;;;;;;5020248;28;20038;-71
2022/11/26 09:21:44;;;;;;;25.52;11.75;;;7.70;99.90;;;;;;5008018;28;20046;-71
2022/11/26 09:24:12;;;;;;;22.50;9.63;;;7.70;99.90;;;;;;5019220;28;20061;-71
2022/11/26 09:26:39;;;;;;;24.95;11.27;;;7.80;99.90;;;;;;5028768;28;20041;-69
2022/11/26 09:29:07;;;;;;;18.55;10.10;;;7.90;99.90;;;;;;5026791;28;20056;-70
2022/11/26 09:31:34;;;;;;;26.02;10.80;;;8.10;99.90;;;;;;5029011;28;20045;-70
2022/11/26 09:34:02;;;;;;;25.20;11.43;;;8.10;99.90;;;;;;5029880;28;20041;-70
2022/11/26 09:36:30;;;;;;;22.45;10.43;;;8.20;99.90;;;;;;5026553;28;20087;-72
2022/11/26 09:38:59;;;;;;;19.77;10.43;;;8.20;99.90;;;;;;5019921;28;20067;-71
2022/11/26 09:41:47;;;;;;;20.58;10.52;;;8.10;99.90;;;;;;5027394;28;20116;-71
2022/11/26 09:44:42;;;;;;;21.50;11.63;;;7.90;99.90;;;;;;5008176;28;20378;-71
2022/11/26 09:47:24;;;;;;;25.02;11.40;;;7.90;99.90;;;;;;5016734;28;20050;-69
2022/11/26 09:50:13;;;;;;;22.25;10.82;;;7.80;99.90;;;;;;5022346;28;20068;-70
2022/11/26 09:52:43;;;;;;;23.00;11.25;;;7.70;99.90;;;;;;5024780;28;20496;-70
2022/11/26 09:55:15;;;;;;;25.58;11.88;;;7.80;99.90;;;;;;5008440;28;20066;-69
2022/11/26 09:57:48;;;;;;;25.30;13.00;;;7.70;99.90;;;;;;4996779;28;20038;-70
2022/11/26 10:00:27;;;;;;;25.35;12.30;;;7.60;99.90;;;;;;5020509;28;20296;-70
2022/11/26 10:02:56;;;;;;;25.67;13.15;;;7.50;99.90;;;;;;5027662;28;20555;-71
2022/11/26 10:06:00;;;;;;;25.88;12.63;;;7.30;99.90;;;;;;5016706;28;20038;-71
2022/11/26 10:09:11;;;;;;;23.40;12.77;;;7.30;99.90;;;;;;5024399;28;20522;-71
2022/11/26 10:12:05;;;;;;;29.15;12.60;;;7.40;99.90;;;;;;5022180;28;20037;-69
2022/11/26 10:15:23;;;;;;;35.00;13.65;;;7.40;99.90;;;;;;5025692;28;20526;-69
2022/11/26 10:18:14;;;;;;;26.10;13.25;;;7.30;99.90;;;;;;5026262;28;20049;-70
2022/11/26 10:21:01;;;;;;;28.55;14.10;;;7.40;99.90;;;;;;5014200;28;20080;-70
2022/11/26 10:23:39;;;;;;;27.42;12.98;;;7.40;99.90;;;;;;4999827;28;20172;-71
2022/11/26 10:26:14;;;;;;;27.13;12.15;;;7.40;99.90;;;;;;5029769;28;20041;-71
2022/11/26 10:28:48;;;;;;;28.95;13.15;;;7.40;99.90;;;;;;5010247;28;20504;-70
2022/11/26 10:31:30;;;;;;;28.50;13.85;;;7.30;99.90;;;;;;5026886;28;20042;-70
2022/11/26 10:34:01;;;;;;;32.75;14.85;;;7.30;99.90;;;;;;5032943;28;20045;-69
2022/11/26 10:36:38;;;;;;;22.40;13.35;;;7.30;99.90;;;;;;5009392;28;20192;-69
2022/11/26 10:39:06;;;;;;;30.40;14.05;;;7.20;99.90;;;;;;5021883;28;20045;-68
2022/11/26 10:41:35;;;;;;;25.20;13.13;;;7.00;99.90;;;;;;5010120;28;20057;-70
2022/11/26 10:44:28;;;;;;;27.25;14.00;;;7.10;99.90;;;;;;5024886;28;20627;-70
2022/11/26 10:46:57;;;;;;;28.63;14.05;;;7.20;99.90;;;;;;5031118;28;20041;-70
2022/11/26 10:49:27;;;;;;;25.88;14.60;;;7.20;99.90;;;;;;5006115;28;20045;-70
2022/11/26 10:52:00;;;;;;;28.98;13.90;;;7.30;99.90;;;;;;5008286;28;20136;-70
2022/11/26 10:54:33;;;;;;;27.60;13.00;;;7.30;99.90;;;;;;5014069;28;20049;-70
2022/11/26 10:57:12;;;;;;;24.60;13.27;;;7.30;99.90;;;;;;5023706;28;20042;-70
2022/11/26 10:59:50;;;;;;;24.50;13.10;;;7.40;99.90;;;;;;5003349;28;20323;-70
2022/11/26 11:02:40;;;;;;;26.02;13.07;;;7.40;99.90;;;;;;5021538;28;20149;-70
2022/11/26 11:05:08;;;;;;;24.73;12.93;;;7.50;99.90;;;;;;5029661;28;20529;-70
2022/11/26 11:07:40;;;;;;;27.25;13.48;;;7.70;99.90;;;;;;5029203;28;20049;-69
2022/11/26 11:10:07;;;;;;;28.90;13.57;;;7.70;99.90;;;;;;5027633;28;20132;-70
2022/11/26 11:12:46;;;;;;;30.00;12.13;;;7.80;99.90;;;;;;5020708;28;20049;-70
2022/11/26 11:15:24;;;;;;;21.13;11.10;;;7.90;99.90;;;;;;5014151;28;20111;-71
2022/11/26 11:18:06;;;;;;;18.73;11.63;;;8.00;99.90;;;;;;5031071;28;20392;-71
2022/11/26 11:20:54;;;;;;;26.65;12.50;;;8.00;99.90;;;;;;5024167;28;20141;-71
2022/11/26 11:23:27;;;;;;;23.08;10.88;;;8.00;99.90;;;;;;5032786;28;20049;-71
2022/11/26 11:26:23;;;;;;;23.13;11.57;;;8.00;99.90;;;;;;5022649;28;20484;-71
2022/11/26 11:28:53;;;;;;;26.98;11.85;;;8.10;99.90;;;;;;5011589;28;20038;-71
2022/11/26 11:31:22;;;;;;;25.02;11.73;;;8.20;99.90;;;;;;5028649;28;20137;-69
2022/11/26 11:33:51;;;;;;;22.52;12.25;;;8.10;99.90;;;;;;5016855;28;20050;-69
2022/11/26 11:36:27;;;;;;;30.77;11.85;;;8.20;99.90;;;;;;5020960;28;20048;-70
2022/11/26 11:39:00;;;;;;;19.25;11.23;;;8.30;99.90;;;;;;5029541;28;20045;-70
2022/11/26 11:41:47;;;;;;;25.48;13.10;;;8.10;99.90;;;;;;5023402;28;20384;-70
2022/11/26 11:44:16;;;;;;;24.88;11.43;;;7.90;99.90;;;;;;5010005;28;20059;-70
2022/11/26 11:47:02;;;;;;;29.48;12.57;;;7.70;99.90;;;;;;5022884;28;20045;-70
2022/11/26 11:49:44;;;;;;;23.08;12.50;;;7.80;99.90;;;;;;5016650;28;20443;-70
2022/11/26 11:52:20;;;;;;;23.05;11.63;;;7.70;99.90;;;;;;5022798;28;20088;-70
2022/11/26 11:54:55;;;;;;;23.50;13.18;;;7.70;99.90;;;;;;5030903;28;20084;-70
2022/11/26 11:57:45;;;;;;;22.80;12.20;;;7.80;99.90;;;;;;5026873;28;20046;-70
2022/11/26 12:00:14;;;;;;;20.23;12.20;;;7.80;99.90;;;;;;5019224;28;20523;-70
2022/11/26 12:03:09;;;;;;;21.95;12.75;;;7.70;99.90;;;;;;5028596;28;20385;-71
2022/11/26 12:05:54;;;;;;;20.73;12.27;;;7.60;99.90;;;;;;5024825;28;20045;-69
2022/11/26 12:08:30;;;;;;;23.63;12.88;;;7.60;99.90;;;;;;5028678;28;20052;-71
2022/11/26 12:11:33;;;;;;;26.08;13.25;;;7.60;99.90;;;;;;5024129;28;20046;-71
2022/11/26 12:14:11;;;;;;;28.10;12.98;;;7.70;99.90;;;;;;5023232;28;20046;-71
2022/11/26 12:16:43;;;;;;;23.40;13.20;;;7.80;99.90;;;;;;5016487;28;20045;-70
2022/11/26 12:19:17;;;;;;;23.85;12.38;;;7.80;99.90;;;;;;5031615;28;20072;-71
2022/11/26 12:21:51;;;;;;;22.08;11.98;;;7.80;99.90;;;;;;5009118;28;20048;-71
2022/11/26 12:24:26;;;;;;;27.15;13.10;;;7.80;99.90;;;;;;5027652;28;20107;-72
2022/11/26 12:27:03;;;;;;;27.05;12.52;;;7.80;99.90;;;;;;4999935;28;20049;-70
2022/11/26 12:29:46;;;;;;;23.60;12.57;;;7.70;99.90;;;;;;5021078;28;20120;-71
2022/11/26 12:32:22;;;;;;;23.02;13.32;;;7.70;99.90;;;;;;5013879;28;20499;-72
2022/11/26 12:34:53;;;;;;;23.65;13.48;;;7.60;99.90;;;;;;5034673;28;20342;-68
2022/11/26 12:37:31;;;;;;;28.70;14.85;;;7.60;99.90;;;;;;4998600;28;20539;-71
2022/11/26 12:40:04;;;;;;;30.25;14.88;;;7.60;99.90;;;;;;5010261;28;20076;-70
2022/11/26 12:42:40;;;;;;;29.13;13.38;;;7.70;99.90;;;;;;5029301;28;20041;-70
2022/11/26 12:45:27;;;;;;;23.35;13.38;;;7.70;99.90;;;;;;5015482;28;20437;-71
2022/11/26 12:48:04;;;;;;;25.48;13.65;;;7.70;99.90;;;;;;5024271;28;20148;-70
2022/11/26 12:50:40;;;;;;;26.70;13.05;;;7.60;99.90;;;;;;5028523;28;20029;-71
2022/11/26 12:53:45;;;;;;;27.65;14.77;;;7.60;99.90;;;;;;5023456;28;20053;-70
2022/11/26 12:56:36;;;;;;;26.02;13.90;;;7.60;99.90;;;;;;5011314;28;20050;-70
2022/11/26 12:59:18;;;;;;;28.02;13.63;;;7.70;99.90;;;;;;5011323;28;20057;-70
2022/11/26 13:01:46;;;;;;;22.70;13.65;;;7.90;99.90;;;;;;5019769;28;20089;-70
2022/11/26 13:04:14;;;;;;;27.20;13.27;;;8.20;99.90;;;;;;5017213;28;20497;-71